Ozernaja, Russia
Current Conditions -  °F | °C
As of 9:00 PM on Sunday 26 Oct 2014 (Local Time) from UHPP Reporting Station
Clear Clear  
Wind Chill: 25°   Ceiling: Unl
Heat Index: 30°   Visibility: 6mi
Dew Point: 16°   Wind: 4mph
Humidity: 55%   Direction: 100°E
Pressure: 29.94"   Gusts: NA
Location:  51.48°N, 156.48°E
Report Text: UHPP 260900Z 10002MPS 9999 NSC M01/M09 Q1014 NOSIG RMKQFE757/1010 SC070
Loading
Personal Weather Stations






























Interactive Weather Map
Tropical Storm Tracking
New forecast layout! Learn more

10-Day Weather Forecast

Advertisements
Track Severe Weather on mobile